Time;durP1;ratioP1;P1;durP2;ratioP2;P2;SDS_P1;SDS_P2;PMS_P1;PMS_P2;Temp;Humidity;BMP_temperature;BMP_pressure;BME280_temperature;BME280_humidity;BME280_pressure;Samples;Min_cycle;Max_cycle;Signal;HPM_P1;HPM_P2
2022/05/24 00:01:25;;;;;;;;;;;16.50;1.00;;;;;;5055801;28;19912;-77
2022/05/24 00:03:51;;;;;;;;;;;16.50;1.00;;;;;;5073597;28;19952;-78
2022/05/24 00:06:22;;;;;;;;;;;16.60;1.00;;;;;;5061421;28;19913;-78
2022/05/24 00:08:48;;;;;;;;;;;16.40;1.00;;;;;;5073699;28;19908;-78
2022/05/24 00:11:13;;;;;;;;;;;16.50;1.00;;;;;;5062907;28;19920;-78
2022/05/24 00:13:39;;;;;;;;;;;16.50;1.00;;;;;;5064223;28;20197;-79
2022/05/24 00:16:04;;;;;;;;;;;16.50;1.00;;;;;;5064248;28;19916;-79
2022/05/24 00:18:30;;;;;;;;;;;16.60;1.00;;;;;;5073641;28;19912;-79
2022/05/24 00:20:57;;;;;;;;;;;16.60;1.00;;;;;;5061095;28;19913;-79
2022/05/24 00:23:24;;;;;;;;;;;16.60;1.00;;;;;;5063914;28;19909;-79
2022/05/24 00:25:52;;;;;;;;;;;16.60;1.00;;;;;;5062086;28;19924;-79
2022/05/24 00:28:18;;;;;;;;;;;16.60;1.00;;;;;;5053312;28;19913;-78
2022/05/24 00:30:45;;;;;;;;;;;16.60;1.00;;;;;;5057934;28;19990;-81
2022/05/24 00:33:10;;;;;;;;;;;16.60;1.00;;;;;;5068502;28;19913;-81
2022/05/24 00:35:36;;;;;;;;;;;16.60;1.00;;;;;;5071135;28;19939;-81
2022/05/24 00:38:02;;;;;;;;;;;16.60;1.00;;;;;;5069136;28;19913;-81
2022/05/24 00:40:34;;;;;;;;;;;16.60;1.00;;;;;;5056230;28;19908;-82
2022/05/24 00:43:05;;;;;;;;;;;16.60;1.00;;;;;;5069774;28;19952;-81
2022/05/24 00:45:43;;;;;;;;;;;16.60;1.00;;;;;;5072849;28;20001;-81
2022/05/24 00:48:21;;;;;;;;;;;16.60;1.00;;;;;;5067327;28;19995;-81
2022/05/24 00:50:48;;;;;;;;;;;16.60;1.00;;;;;;5052019;28;19975;-81
2022/05/24 00:53:20;;;;;;;;;;;16.60;1.00;;;;;;5087148;28;19920;-81
2022/05/24 00:56:01;;;;;;;;;;;16.60;1.00;;;;;;5071958;28;20042;-81
2022/05/24 00:58:46;;;;;;;;;;;16.50;1.00;;;;;;5072598;28;19950;-81
2022/05/24 01:01:17;;;;;;;;;;;16.60;1.00;;;;;;5070315;28;19920;-81
2022/05/24 01:03:43;;;;;;;;;;;16.50;1.00;;;;;;5073318;28;20294;-81
2022/05/24 01:06:09;;;;;;;;;;;16.50;1.00;;;;;;5060738;28;19912;-81
2022/05/24 01:08:34;;;;;;;;;;;16.50;1.00;;;;;;5073153;28;19916;-81
2022/05/24 01:11:04;;;;;;;;;;;16.50;1.00;;;;;;5061618;28;19978;-81
2022/05/24 01:13:30;;;;;;;;;;;16.40;1.00;;;;;;5063878;28;19909;-81
2022/05/24 01:15:56;;;;;;;;;;;16.40;1.00;;;;;;5063241;28;19916;-81
2022/05/24 01:18:23;;;;;;;;;;;16.30;1.00;;;;;;5073146;28;20278;-81
2022/05/24 01:20:51;;;;;;;;;;;16.30;1.00;;;;;;5063848;28;19913;-81
2022/05/24 01:23:26;;;;;;;;;;;16.20;1.00;;;;;;5071660;28;19916;-81
2022/05/24 01:25:51;;;;;;;;;;;16.30;1.00;;;;;;5053976;28;19948;-81
2022/05/24 01:28:22;;;;;;;;;;;16.20;1.00;;;;;;5063856;28;19928;-81
2022/05/24 01:30:48;;;;;;;;;;;16.30;1.00;;;;;;5055787;28;19917;-78
2022/05/24 01:36:10;;;;;;;;;;;16.30;1.00;;;;;;5062709;28;19939;-77
2022/05/24 01:38:35;;;;;;;;;;;16.30;1.00;;;;;;5070795;28;19909;-77
2022/05/24 01:41:01;;;;;;;;;;;16.30;1.00;;;;;;5064056;28;20279;-78
2022/05/24 01:43:27;;;;;;;;;;;16.40;1.00;;;;;;5071755;28;19908;-78
2022/05/24 01:45:56;;;;;;;;;;;16.40;1.00;;;;;;5053016;28;19912;-78
2022/05/24 01:48:28;;;;;;;;;;;16.40;1.00;;;;;;5053981;28;19917;-77
2022/05/24 01:50:54;;;;;;;;;;;16.30;1.00;;;;;;5064288;28;20318;-77
2022/05/24 01:53:23;;;;;;;;;;;16.40;1.00;;;;;;5056139;28;19913;-78
2022/05/24 01:55:54;;;;;;;;;;;16.40;1.00;;;;;;5065485;28;19966;-78
2022/05/24 01:58:21;;;;;;;;;;;16.40;1.00;;;;;;5057276;28;20275;-77
2022/05/24 02:00:58;;;;;;;;;;;16.40;1.00;;;;;;5066734;28;19915;-81
2022/05/24 02:03:24;;;;;;;;;;;16.50;1.00;;;;;;5061796;28;19985;-81
2022/05/24 02:05:49;;;;;;;;;;;16.50;1.00;;;;;;5095401;28;20376;-81
2022/05/24 02:08:15;;;;;;;;;;;16.50;1.00;;;;;;5061417;28;20057;-81
2022/05/24 02:10:49;;;;;;;;;;;16.50;1.00;;;;;;5056179;28;19940;-81
2022/05/24 02:13:20;;;;;;;;;;;16.40;1.00;;;;;;5055671;28;19913;-81
2022/05/24 02:15:48;;;;;;;;;;;16.40;1.00;;;;;;5056053;28;19913;-78
2022/05/24 02:18:15;;;;;;;;;;;16.30;1.00;;;;;;5056388;28;20156;-77
2022/05/24 02:20:42;;;;;;;;;;;16.30;1.00;;;;;;5055547;28;19912;-77
2022/05/24 02:23:09;;;;;;;;;;;16.10;1.00;;;;;;5074655;28;19931;-78
2022/05/24 02:25:39;;;;;;;;;;;16.00;1.00;;;;;;5075834;28;19916;-77
2022/05/24 02:28:08;;;;;;;;;;;15.90;1.00;;;;;;5075656;28;19920;-78
2022/05/24 02:30:35;;;;;;;;;;;15.90;1.00;;;;;;5061358;28;19921;-81
2022/05/24 02:33:01;;;;;;;;;;;15.80;1.00;;;;;;5056087;28;19951;-81
2022/05/24 02:35:26;;;;;;;;;;;15.70;1.00;;;;;;5064208;28;19916;-81
2022/05/24 02:37:52;;;;;;;;;;;15.70;1.00;;;;;;5075242;28;20419;-81
2022/05/24 02:43:01;;;;;;;;;;;15.60;1.00;;;;;;5069405;28;19916;-81
2022/05/24 02:45:27;;;;;;;;;;;15.50;1.00;;;;;;5063278;28;19912;-81
2022/05/24 02:47:52;;;;;;;;;;;15.50;1.00;;;;;;5066739;28;19920;-81
2022/05/24 02:50:18;;;;;;;;;;;15.40;1.00;;;;;;5062544;28;19912;-81
2022/05/24 02:52:43;;;;;;;;;;;15.40;1.00;;;;;;5068185;28;19939;-80
2022/05/24 02:55:10;;;;;;;;;;;15.30;1.00;;;;;;5069069;28;20406;-81
2022/05/24 02:57:37;;;;;;;;;;;15.30;1.00;;;;;;5069801;28;19913;-81
2022/05/24 03:00:08;;;;;;;;;;;15.40;1.00;;;;;;5075154;28;19909;-81
2022/05/24 03:02:33;;;;;;;;;;;15.30;1.00;;;;;;5071057;28;19919;-81
2022/05/24 03:04:59;;;;;;;;;;;15.20;1.00;;;;;;5107714;28;20363;-81
2022/05/24 03:10:09;;;;;;;;;;;15.40;1.00;;;;;;5056114;28;20276;-81
2022/05/24 03:15:19;;;;;;;;;;;15.40;1.00;;;;;;5063991;28;19931;-81
2022/05/24 03:17:45;;;;;;;;;;;15.40;1.00;;;;;;5061754;28;19909;-81
2022/05/24 03:20:11;;;;;;;;;;;15.40;1.00;;;;;;5072843;28;19975;-81
2022/05/24 03:22:37;;;;;;;;;;;15.50;1.00;;;;;;5074606;28;19912;-81
2022/05/24 03:25:02;;;;;;;;;;;15.50;1.00;;;;;;5073506;28;19908;-81
2022/05/24 03:27:28;;;;;;;;;;;15.60;1.00;;;;;;5047965;28;19919;-81
2022/05/24 03:29:53;;;;;;;;;;;15.60;1.00;;;;;;5061368;28;19956;-81
2022/05/24 03:32:19;;;;;;;;;;;15.70;1.00;;;;;;5055219;28;19920;-81
2022/05/24 03:34:45;;;;;;;;;;;15.80;1.00;;;;;;5066757;28;19913;-81
2022/05/24 03:37:11;;;;;;;;;;;15.90;1.00;;;;;;5059643;28;19920;-81
2022/05/24 03:39:36;;;;;;;;;;;15.80;1.00;;;;;;5105549;28;19962;-81
2022/05/24 03:42:02;;;;;;;;;;;15.80;1.00;;;;;;5072111;28;19952;-82
2022/05/24 03:44:28;;;;;;;;;;;15.90;1.00;;;;;;5060947;28;19920;-81
2022/05/24 03:46:54;;;;;;;;;;;16.00;1.00;;;;;;5074188;28;20047;-77
2022/05/24 03:49:20;;;;;;;;;;;16.00;1.00;;;;;;5062751;28;20423;-77
2022/05/24 03:51:46;;;;;;;;;;;15.90;1.00;;;;;;5072241;28;19914;-78
2022/05/24 03:54:12;;;;;;;;;;;15.90;1.00;;;;;;5063749;28;20287;-78
2022/05/24 03:56:38;;;;;;;;;;;15.90;1.00;;;;;;5073289;28;19919;-78
2022/05/24 03:59:04;;;;;;;;;;;15.90;1.00;;;;;;5067579;28;19920;-78
2022/05/24 04:01:29;;;;;;;;;;;15.90;1.00;;;;;;5074344;28;19912;-81
2022/05/24 04:03:55;;;;;;;;;;;15.80;1.00;;;;;;5055453;28;20395;-81
2022/05/24 04:06:21;;;;;;;;;;;16.00;1.00;;;;;;5073228;28;19916;-81
2022/05/24 04:08:52;;;;;;;;;;;16.10;1.00;;;;;;5059180;28;20275;-81
2022/05/24 04:11:17;;;;;;;;;;;15.90;1.00;;;;;;5045168;28;20318;-82
2022/05/24 04:13:42;;;;;;;;;;;15.90;1.00;;;;;;5067153;28;19912;-81
2022/05/24 04:16:09;;;;;;;;;;;16.00;1.00;;;;;;5058619;28;19951;-78
2022/05/24 04:18:35;;;;;;;;;;;15.90;1.00;;;;;;5064856;28;19912;-78
2022/05/24 04:21:01;;;;;;;;;;;15.90;1.00;;;;;;5073370;28;19912;-77
2022/05/24 04:23:26;;;;;;;;;;;16.00;1.00;;;;;;5048269;28;20011;-77
2022/05/24 04:25:53;;;;;;;;;;;16.00;1.00;;;;;;5057517;28;20364;-77
2022/05/24 04:28:19;;;;;;;;;;;16.10;1.00;;;;;;5065654;28;19966;-76
2022/05/24 04:30:49;;;;;;;;;;;16.00;1.00;;;;;;5069714;28;19913;-76
2022/05/24 04:33:15;;;;;;;;;;;16.10;1.00;;;;;;5047582;28;19928;-74
2022/05/24 04:35:41;;;;;;;;;;;16.20;1.00;;;;;;5071313;28;20359;-74
2022/05/24 04:38:06;;;;;;;;;;;16.20;1.00;;;;;;5051876;28;19943;-74
2022/05/24 04:43:16;;;;;;;;;;;16.30;1.00;;;;;;5073022;28;20398;-74
2022/05/24 04:45:42;;;;;;;;;;;16.50;1.00;;;;;;5073223;28;19909;-74
2022/05/24 04:48:07;;;;;;;;;;;16.40;1.00;;;;;;5073578;28;20393;-75
2022/05/24 04:50:33;;;;;;;;;;;16.50;1.00;;;;;;5072512;28;19999;-75
2022/05/24 04:52:59;;;;;;;;;;;16.60;1.00;;;;;;5067896;28;19909;-74
2022/05/24 04:55:26;;;;;;;;;;;16.70;1.00;;;;;;5105649;28;19912;-74
2022/05/24 04:57:53;;;;;;;;;;;16.80;1.00;;;;;;5069193;28;19912;-77
2022/05/24 05:00:20;;;;;;;;;;;16.80;1.00;;;;;;5055567;28;19956;-76
2022/05/24 05:02:46;;;;;;;;;;;16.80;1.00;;;;;;5053618;28;19913;-77
2022/05/24 05:05:13;;;;;;;;;;;16.90;1.00;;;;;;5062470;28;20355;-77
2022/05/24 05:07:39;;;;;;;;;;;17.00;1.00;;;;;;5062912;28;19913;-78
2022/05/24 05:10:05;;;;;;;;;;;17.00;1.00;;;;;;5061082;28;20394;-78
2022/05/24 05:12:30;;;;;;;;;;;17.10;1.00;;;;;;5062413;28;19927;-78
2022/05/24 05:14:56;;;;;;;;;;;17.20;1.00;;;;;;5065098;28;19916;-77
2022/05/24 05:17:21;;;;;;;;;;;17.30;1.00;;;;;;5053412;28;19912;-77
2022/05/24 05:19:47;;;;;;;;;;;17.20;1.00;;;;;;5061434;28;20279;-79
2022/05/24 05:22:14;;;;;;;;;;;17.20;1.00;;;;;;5054287;28;19908;-78
2022/05/24 05:24:40;;;;;;;;;;;17.20;1.00;;;;;;5056850;28;19920;-78
2022/05/24 05:27:05;;;;;;;;;;;17.10;1.00;;;;;;5055423;28;19909;-78
2022/05/24 05:32:16;;;;;;;;;;;17.30;1.00;;;;;;5051770;28;19920;-78
2022/05/24 05:34:41;;;;;;;;;;;17.30;1.00;;;;;;5063457;28;19915;-78
2022/05/24 05:37:07;;;;;;;;;;;17.30;1.00;;;;;;5053140;28;19916;-78
2022/05/24 05:39:35;;;;;;;;;;;17.30;1.00;;;;;;5066129;28;19909;-71
2022/05/24 05:42:01;;;;;;;;;;;17.30;1.00;;;;;;5074924;28;19951;-71
2022/05/24 05:44:29;;;;;;;;;;;17.30;1.00;;;;;;5075411;28;20001;-71
2022/05/24 05:46:55;;;;;;;;;;;17.30;1.00;;;;;;5075513;28;19914;-72
2022/05/24 05:49:21;;;;;;;;;;;17.30;1.00;;;;;;5075199;28;19912;-72
2022/05/24 05:51:48;;;;;;;;;;;17.20;1.00;;;;;;5072753;28;19908;-75
2022/05/24 05:54:14;;;;;;;;;;;17.30;1.00;;;;;;5051521;28;19955;-76
2022/05/24 05:56:40;;;;;;;;;;;17.10;1.00;;;;;;5067699;28;19912;-75
2022/05/24 05:59:06;;;;;;;;;;;17.20;1.00;;;;;;5075050;28;19996;-72
2022/05/24 06:01:32;;;;;;;;;;;17.20;1.00;;;;;;5075128;28;19909;-77
2022/05/24 06:03:58;;;;;;;;;;;17.40;1.00;;;;;;5075482;28;19962;-72
2022/05/24 06:06:25;;;;;;;;;;;17.50;1.00;;;;;;5074768;28;19995;-72
2022/05/24 06:08:51;;;;;;;;;;;17.50;1.00;;;;;;5074933;28;19913;-71
2022/05/24 06:11:16;;;;;;;;;;;17.60;1.00;;;;;;5065173;28;19920;-80
2022/05/24 06:13:42;;;;;;;;;;;17.60;1.00;;;;;;5071526;28;20355;-71
2022/05/24 06:16:10;;;;;;;;;;;17.60;1.00;;;;;;5037119;28;20178;-76
2022/05/24 06:18:36;;;;;;;;;;;17.40;1.00;;;;;;5044874;28;19912;-81
2022/05/24 06:21:01;;;;;;;;;;;17.40;1.00;;;;;;5049429;28;19917;-81
2022/05/24 06:23:27;;;;;;;;;;;17.10;1.00;;;;;;5061063;28;20375;-81
2022/05/24 06:25:52;;;;;;;;;;;16.90;1.00;;;;;;5073653;28;20271;-81
2022/05/24 06:28:18;;;;;;;;;;;16.60;1.00;;;;;;4994854;28;1833910;-81
2022/05/24 06:30:44;;;;;;;;;;;16.60;1.00;;;;;;5058574;28;19915;-82
2022/05/24 06:33:10;;;;;;;;;;;16.40;1.00;;;;;;5062493;28;19999;-81
2022/05/24 06:35:37;;;;;;;;;;;16.40;1.00;;;;;;5070159;28;19912;-81
2022/05/24 06:38:02;;;;;;;;;;;16.30;1.00;;;;;;5058602;28;19920;-81
2022/05/24 06:40:28;;;;;;;;;;;16.30;1.00;;;;;;5075338;28;19934;-81
2022/05/24 06:42:53;;;;;;;;;;;16.30;1.00;;;;;;5055748;28;19919;-81
2022/05/24 06:45:19;;;;;;;;;;;16.40;1.00;;;;;;5063940;28;20268;-81
2022/05/24 06:47:44;;;;;;;;;;;16.30;1.00;;;;;;5057113;28;19920;-80
2022/05/24 06:50:11;;;;;;;;;;;16.40;1.00;;;;;;5062470;28;20291;-81
2022/05/24 06:52:36;;;;;;;;;;;16.50;1.00;;;;;;5060204;28;19913;-81
2022/05/24 06:55:02;;;;;;;;;;;16.50;1.00;;;;;;5070000;28;19999;-80
2022/05/24 06:57:28;;;;;;;;;;;16.70;1.00;;;;;;5075260;28;19920;-81
2022/05/24 07:02:37;;;;;;;;;;;16.80;1.00;;;;;;5060851;28;19919;-78
2022/05/24 07:05:12;;;;;;;;;;;16.70;1.00;;;;;;5075206;28;20286;-77
2022/05/24 07:07:39;;;;;;;;;;;16.60;1.00;;;;;;5066281;28;19920;-80
2022/05/24 07:10:05;;;;;;;;;;;16.50;1.00;;;;;;5074934;28;19908;-78
2022/05/24 07:12:31;;;;;;;;;;;16.60;1.00;;;;;;5060999;28;19970;-78
2022/05/24 07:14:57;;;;;;;;;;;16.60;1.00;;;;;;5097273;28;20301;-78
2022/05/24 07:17:23;;;;;;;;;;;16.70;1.00;;;;;;5054899;28;19917;-78
2022/05/24 07:19:49;;;;;;;;;;;16.70;1.00;;;;;;5056021;28;19939;-84
2022/05/24 07:22:15;;;;;;;;;;;16.80;1.00;;;;;;5069702;28;19909;-80
2022/05/24 07:24:40;;;;;;;;;;;16.90;1.00;;;;;;5074700;28;20386;-80
2022/05/24 07:27:10;;;;;;;;;;;17.10;1.00;;;;;;5070723;28;19909;-79
2022/05/24 07:29:35;;;;;;;;;;;17.00;1.00;;;;;;5107058;28;19924;-80
2022/05/24 07:32:01;;;;;;;;;;;17.10;1.00;;;;;;5060484;28;19919;-81
2022/05/24 07:34:26;;;;;;;;;;;17.30;1.00;;;;;;5062976;28;20421;-80
2022/05/24 07:36:52;;;;;;;;;;;17.30;1.00;;;;;;5060657;28;19916;-87
2022/05/24 07:39:18;;;;;;;;;;;17.50;1.00;;;;;;5065755;28;19913;-82
2022/05/24 07:47:17;;;;;;;;;;;17.50;1.00;;;;;;5053638;28;20395;-82
2022/05/24 07:49:43;;;;;;;;;;;17.60;1.00;;;;;;5063802;28;19961;-81
2022/05/24 07:52:08;;;;;;;;;;;17.70;1.00;;;;;;5052152;28;19908;-82
2022/05/24 07:54:34;;;;;;;;;;;17.80;1.00;;;;;;5068078;28;19908;-82
2022/05/24 07:57:00;;;;;;;;;;;17.80;1.00;;;;;;5063327;28;19912;-82
2022/05/24 07:59:26;;;;;;;;;;;17.70;99.90;;;;;;5072028;28;19909;-81
2022/05/24 08:01:52;;;;;;;;;;;17.60;99.90;;;;;;5052038;28;19909;-83
2022/05/24 08:04:18;;;;;;;;;;;17.40;99.90;;;;;;5071989;28;19947;-78
2022/05/24 08:06:44;;;;;;;;;;;17.50;99.90;;;;;;5086087;28;20330;-77
2022/05/24 08:09:09;;;;;;;;;;;17.60;99.90;;;;;;5069676;28;20007;-76
2022/05/24 08:11:35;;;;;;;;;;;17.60;99.90;;;;;;5054506;28;19917;-76
2022/05/24 08:14:02;;;;;;;;;;;17.70;99.90;;;;;;5068130;28;19919;-77
2022/05/24 08:16:29;;;;;;;;;;;17.70;99.90;;;;;;5053727;28;19913;-77
2022/05/24 08:18:54;;;;;;;;;;;17.70;99.90;;;;;;5066982;28;19920;-76
2022/05/24 08:21:20;;;;;;;;;;;17.90;99.90;;;;;;5053273;28;19916;-77
2022/05/24 08:23:45;;;;;;;;;;;18.40;99.90;;;;;;5052140;28;20284;-76
2022/05/24 08:26:12;;;;;;;;;;;18.70;99.90;;;;;;5058360;28;19923;-76
2022/05/24 08:28:38;;;;;;;;;;;18.90;99.90;;;;;;5052001;28;19917;-77
2022/05/24 08:31:03;;;;;;;;;;;19.20;99.90;;;;;;5044509;28;19913;-77
2022/05/24 08:33:29;;;;;;;;;;;19.10;99.90;;;;;;5015101;28;19960;-76
2022/05/24 08:35:54;;;;;;;;;;;19.50;99.90;;;;;;5040000;28;19919;-77
2022/05/24 08:38:21;;;;;;;;;;;19.60;99.90;;;;;;5030689;28;19913;-76
2022/05/24 08:40:47;;;;;;;;;;;19.50;99.90;;;;;;5052561;28;19999;-76
2022/05/24 08:43:32;;;;;;;;;;;19.50;99.90;;;;;;5048130;28;19908;-77
2022/05/24 08:49:03;;;;;;;;;;;19.50;99.90;;;;;;5027739;28;19958;-82
2022/05/24 08:51:40;;;;;;;;;;;19.20;99.90;;;;;;5043530;28;19931;-82
2022/05/24 08:54:08;;;;;;;;;;;19.20;99.90;;;;;;5050846;28;19909;-82
2022/05/24 08:56:37;;;;;;;;;;;19.50;99.90;;;;;;5043202;28;19919;-82
2022/05/24 08:59:11;;;;;;;;;;;19.50;99.90;;;;;;5051045;28;19909;-82
2022/05/24 09:01:37;;;;;;;;;;;19.50;99.90;;;;;;5019280;28;19913;-82
2022/05/24 09:04:05;;;;;;;;;;;19.50;99.90;;;;;;5051254;28;19941;-75
2022/05/24 09:06:34;;;;;;;;;;;19.60;99.90;;;;;;5049066;28;20117;-76
2022/05/24 09:09:02;;;;;;;;;;;19.90;99.90;;;;;;5046149;28;20008;-76
2022/05/24 09:11:46;;;;;;;;;;;19.90;99.90;;;;;;5025050;28;20363;-75
2022/05/24 09:14:31;;;;;;;;;;;20.00;99.90;;;;;;5027513;28;19931;-75
2022/05/24 09:17:10;;;;;;;;;;;19.90;99.90;;;;;;5052505;28;19967;-75
2022/05/24 09:19:36;;;;;;;;;;;19.80;99.90;;;;;;5052160;28;20022;-82
2022/05/24 09:22:06;;;;;;;;;;;20.00;99.90;;;;;;5031271;28;20414;-82
2022/05/24 09:24:41;;;;;;;;;;;20.10;99.90;;;;;;5038356;28;20303;-82
2022/05/24 09:27:20;;;;;;;;;;;19.80;99.90;;;;;;5052154;28;19913;-81
2022/05/24 09:29:54;;;;;;;;;;;20.00;99.90;;;;;;5055866;28;19920;-82
2022/05/24 09:32:20;;;;;;;;;;;20.40;99.90;;;;;;5060167;28;19913;-82
2022/05/24 09:34:45;;;;;;;;;;;20.60;99.90;;;;;;5067647;28;19999;-75
2022/05/24 09:37:24;;;;;;;;;;;20.40;99.90;;;;;;5076098;28;20011;-75
2022/05/24 09:40:04;;;;;;;;;;;20.30;99.90;;;;;;5075283;28;19908;-79
2022/05/24 09:42:34;;;;;;;;;;;20.50;99.90;;;;;;5075240;28;20298;-79
2022/05/24 09:45:00;;;;;;;;;;;20.60;99.90;;;;;;5076441;28;19909;-79
2022/05/24 09:47:32;;;;;;;;;;;20.70;99.90;;;;;;5076382;28;20326;-79
2022/05/24 09:50:17;;;;;;;;;;;20.70;99.90;;;;;;5076128;28;19934;-79
2022/05/24 09:53:03;;;;;;;;;;;20.60;99.90;;;;;;5076469;28;20306;-79
2022/05/24 09:55:48;;;;;;;;;;;20.40;99.90;;;;;;5076159;28;20322;-79
2022/05/24 09:58:15;;;;;;;;;;;20.20;99.90;;;;;;5075906;28;20376;-79
2022/05/24 10:01:07;;;;;;;;;;;20.00;99.90;;;;;;5076192;28;19966;-79
2022/05/24 10:03:43;;;;;;;;;;;19.90;99.90;;;;;;5075290;28;19958;-79
2022/05/24 10:06:12;;;;;;;;;;;19.90;99.90;;;;;;5076347;28;20364;-76
2022/05/24 10:08:43;;;;;;;;;;;19.90;99.90;;;;;;5076119;28;19908;-77
2022/05/24 10:11:22;;;;;;;;;;;20.00;99.90;;;;;;5061951;28;19913;-76
2022/05/24 10:13:51;;;;;;;;;;;19.80;99.90;;;;;;5051683;28;19917;-76
2022/05/24 10:16:28;;;;;;;;;;;19.60;99.90;;;;;;5049792;28;20272;-76
2022/05/24 10:19:13;;;;;;;;;;;19.60;99.90;;;;;;5058635;28;19913;-76
2022/05/24 10:21:38;;;;;;;;;;;19.60;99.90;;;;;;5054698;28;20364;-76
2022/05/24 10:24:03;;;;;;;;;;;19.50;99.90;;;;;;5057886;28;19912;-76
2022/05/24 10:26:48;;;;;;;;;;;19.60;99.90;;;;;;5055320;28;19959;-76
2022/05/24 10:29:24;;;;;;;;;;;19.60;99.90;;;;;;5061519;28;19969;-75
2022/05/24 10:31:52;;;;;;;;;;;19.40;99.90;;;;;;5093030;28;19917;-76
2022/05/24 10:40:38;;;;;;;;;;;19.40;99.90;;;;;;5046155;28;20390;-80
2022/05/24 10:43:16;;;;;;;;;;;19.80;99.90;;;;;;5053037;28;19908;-80
2022/05/24 10:45:51;;;;;;;;;;;20.10;99.90;;;;;;5053140;28;20368;-80
2022/05/24 10:48:29;;;;;;;;;;;20.20;99.90;;;;;;5051773;28;20368;-79
2022/05/24 10:50:58;;;;;;;;;;;20.50;99.90;;;;;;5030757;28;19936;-83
2022/05/24 10:53:37;;;;;;;;;;;20.60;99.90;;;;;;5036356;28;19913;-80
2022/05/24 10:56:22;;;;;;;;;;;20.50;99.90;;;;;;5052577;28;19913;-80
2022/05/24 10:58:47;;;;;;;;;;;20.30;99.90;;;;;;5049480;28;20383;-81
2022/05/24 11:01:19;;;;;;;;;;;20.40;99.90;;;;;;5052859;28;19909;-81
2022/05/24 11:03:47;;;;;;;;;;;20.50;99.90;;;;;;5052943;28;20473;-79
2022/05/24 11:06:13;;;;;;;;;;;20.50;99.90;;;;;;5053161;28;20439;-79
2022/05/24 11:08:41;;;;;;;;;;;20.40;99.90;;;;;;5049703;28;20008;-80
2022/05/24 11:11:13;;;;;;;;;;;20.30;99.90;;;;;;5045011;28;19959;-80
2022/05/24 11:13:52;;;;;;;;;;;20.30;99.90;;;;;;5039897;28;19999;-86
2022/05/24 11:16:23;;;;;;;;;;;20.40;99.90;;;;;;5049643;28;20007;-83
2022/05/24 11:18:48;;;;;;;;;;;20.30;99.90;;;;;;5075242;28;19973;-78
2022/05/24 11:21:14;;;;;;;;;;;20.40;99.90;;;;;;5074858;28;20375;-74
2022/05/24 11:23:46;;;;;;;;;;;20.20;99.90;;;;;;5074894;28;19908;-75
2022/05/24 11:26:15;;;;;;;;;;;20.30;99.90;;;;;;5074561;28;19975;-75
2022/05/24 11:28:45;;;;;;;;;;;20.00;99.90;;;;;;5074663;28;19920;-75
2022/05/24 11:31:28;;;;;;;;;;;20.10;99.90;;;;;;5071184;28;19966;-76
2022/05/24 11:33:54;;;;;;;;;;;20.20;99.90;;;;;;5054988;28;19917;-75
2022/05/24 11:36:39;;;;;;;;;;;20.30;99.90;;;;;;5053820;28;20429;-75
2022/05/24 11:39:07;;;;;;;;;;;20.40;99.90;;;;;;5062281;28;20351;-75
2022/05/24 11:41:32;;;;;;;;;;;20.30;99.90;;;;;;5074229;28;19912;-76
2022/05/24 11:44:03;;;;;;;;;;;20.50;99.90;;;;;;5065692;28;19954;-76
2022/05/24 11:46:34;;;;;;;;;;;20.70;99.90;;;;;;5070098;28;19915;-78
2022/05/24 11:49:04;;;;;;;;;;;20.70;99.90;;;;;;5065166;28;19913;-78
2022/05/24 11:51:39;;;;;;;;;;;20.70;99.90;;;;;;5054380;28;19913;-85
2022/05/24 11:54:08;;;;;;;;;;;20.90;99.90;;;;;;5074698;28;19909;-86
2022/05/24 11:56:33;;;;;;;;;;;21.00;99.90;;;;;;5074601;28;19920;-85
2022/05/24 11:59:05;;;;;;;;;;;21.00;99.90;;;;;;5074512;28;20284;-84
2022/05/24 12:01:36;;;;;;;;;;;21.40;99.90;;;;;;5073374;28;19920;-85
2022/05/24 12:09:59;;;;;;;;;;;21.40;99.90;;;;;;5062686;28;19966;-74
2022/05/24 12:12:43;;;;;;;;;;;21.30;99.90;;;;;;5049290;28;20265;-74
2022/05/24 12:15:12;;;;;;;;;;;21.30;99.90;;;;;;5049651;28;19928;-74
2022/05/24 12:17:37;;;;;;;;;;;21.50;99.90;;;;;;5049747;28;19917;-74
2022/05/24 12:20:04;;;;;;;;;;;21.60;99.90;;;;;;5049348;28;19919;-74
2022/05/24 12:22:33;;;;;;;;;;;21.80;99.90;;;;;;5049376;28;20060;-74
2022/05/24 12:24:59;;;;;;;;;;;22.10;99.90;;;;;;5048565;28;20005;-74
2022/05/24 12:27:25;;;;;;;;;;;22.00;99.90;;;;;;5048811;28;20356;-75
2022/05/24 12:29:50;;;;;;;;;;;22.30;99.90;;;;;;5051764;28;19931;-75
2022/05/24 12:32:17;;;;;;;;;;;22.80;99.90;;;;;;5054375;28;19978;-74
2022/05/24 12:34:43;;;;;;;;;;;23.10;99.90;;;;;;5059425;28;19909;-75
2022/05/24 12:37:24;;;;;;;;;;;23.10;99.90;;;;;;5068806;28;19956;-87
2022/05/24 12:40:06;;;;;;;;;;;23.00;99.90;;;;;;5085572;28;19916;-87
2022/05/24 12:42:31;;;;;;;;;;;22.90;99.90;;;;;;5061359;28;19982;-86
2022/05/24 12:45:00;;;;;;;;;;;23.00;99.90;;;;;;5106655;28;20375;-87
2022/05/24 12:47:28;;;;;;;;;;;22.70;99.90;;;;;;5101863;28;19908;-86
2022/05/24 12:49:57;;;;;;;;;;;22.90;99.90;;;;;;5069049;28;19944;-87
2022/05/24 12:52:24;;;;;;;;;;;22.70;99.90;;;;;;5099119;28;19923;-86
2022/05/24 12:54:51;;;;;;;;;;;22.60;99.90;;;;;;5055835;28;19916;-87
2022/05/24 12:57:22;;;;;;;;;;;22.40;99.90;;;;;;5058391;28;19916;-87
2022/05/24 12:59:55;;;;;;;;;;;22.40;99.90;;;;;;5062295;28;19955;-87
2022/05/24 13:02:28;;;;;;;;;;;22.20;99.90;;;;;;5069010;28;20000;-87
2022/05/24 13:04:58;;;;;;;;;;;21.90;99.90;;;;;;5057232;28;19913;-85
2022/05/24 13:07:36;;;;;;;;;;;22.10;99.90;;;;;;5051289;28;19943;-76
2022/05/24 13:10:05;;;;;;;;;;;22.20;99.90;;;;;;5051858;28;19963;-75
2022/05/24 13:12:31;;;;;;;;;;;22.30;99.90;;;;;;5061934;28;20003;-75
2022/05/24 13:14:59;;;;;;;;;;;22.40;99.90;;;;;;5073142;28;19951;-75
2022/05/24 13:17:28;;;;;;;;;;;22.60;99.90;;;;;;5067688;28;19917;-75
2022/05/24 13:19:58;;;;;;;;;;;22.80;99.90;;;;;;5071026;28;19919;-75
2022/05/24 13:22:44;;;;;;;;;;;23.10;99.90;;;;;;5058988;28;20383;-84
2022/05/24 13:25:29;;;;;;;;;;;23.30;99.90;;;;;;5036914;28;19960;-83
2022/05/24 13:28:02;;;;;;;;;;;23.20;99.90;;;;;;5036214;28;20000;-83
2022/05/24 13:33:38;;;;;;;;;;;23.20;99.90;;;;;;5048169;28;19996;-84
2022/05/24 13:36:13;;;;;;;;;;;23.20;99.90;;;;;;5051401;28;19913;-83
2022/05/24 13:38:40;;;;;;;;;;;22.80;99.90;;;;;;5051021;28;19916;-83
2022/05/24 13:41:06;;;;;;;;;;;22.70;99.90;;;;;;5039400;28;19964;-83
2022/05/24 13:43:34;;;;;;;;;;;22.90;99.90;;;;;;5050319;28;19916;-83
2022/05/24 13:46:16;;;;;;;;;;;23.00;99.90;;;;;;5051049;28;20367;-83
2022/05/24 13:48:43;;;;;;;;;;;23.20;99.90;;;;;;5034003;28;20273;-83
2022/05/24 13:51:17;;;;;;;;;;;23.00;99.90;;;;;;5051303;28;19920;-79
2022/05/24 13:53:43;;;;;;;;;;;22.80;99.90;;;;;;5046293;28;20402;-83
2022/05/24 13:56:16;;;;;;;;;;;22.90;99.90;;;;;;5050783;28;19913;-83
2022/05/24 13:58:46;;;;;;;;;;;22.90;99.90;;;;;;5050727;28;20450;-83
2022/05/24 14:01:11;;;;;;;;;;;22.80;99.90;;;;;;5052012;28;20311;-83
2022/05/24 14:03:40;;;;;;;;;;;22.90;99.90;;;;;;5059594;28;19954;-83
2022/05/24 14:06:12;;;;;;;;;;;22.90;99.90;;;;;;5063133;28;19916;-83
2022/05/24 14:08:40;;;;;;;;;;;22.90;99.90;;;;;;5076365;28;19948;-74
2022/05/24 14:11:12;;;;;;;;;;;22.80;99.90;;;;;;5074758;28;19954;-74
2022/05/24 14:13:38;;;;;;;;;;;22.90;99.90;;;;;;5069856;28;19912;-74
2022/05/24 14:16:04;;;;;;;;;;;23.00;99.90;;;;;;5076036;28;19913;-74
2022/05/24 14:18:30;;;;;;;;;;;22.90;99.90;;;;;;5062554;28;19908;-74
2022/05/24 14:20:56;;;;;;;;;;;23.10;99.90;;;;;;5076049;28;19916;-74
2022/05/24 14:23:22;;;;;;;;;;;23.40;99.90;;;;;;5062902;28;19913;-83
2022/05/24 14:25:48;;;;;;;;;;;23.60;99.90;;;;;;5064138;28;19909;-83
2022/05/24 14:28:15;;;;;;;;;;;23.50;99.90;;;;;;5056159;28;19924;-83
2022/05/24 14:30:41;;;;;;;;;;;23.40;99.90;;;;;;5049515;28;19913;-83
2022/05/24 14:33:07;;;;;;;;;;;23.50;99.90;;;;;;5088157;28;19915;-89
2022/05/24 14:35:33;;;;;;;;;;;23.70;99.90;;;;;;5068617;28;19913;-84
2022/05/24 14:37:59;;;;;;;;;;;23.60;99.90;;;;;;5066204;28;20354;-87
2022/05/24 14:40:24;;;;;;;;;;;23.70;99.90;;;;;;5061250;28;19956;-88
2022/05/24 14:42:50;;;;;;;;;;;23.90;99.90;;;;;;5068673;28;19913;-87
2022/05/24 14:45:17;;;;;;;;;;;24.10;99.90;;;;;;5089735;28;20382;-87
2022/05/24 14:47:46;;;;;;;;;;;23.90;99.90;;;;;;5070108;28;19915;-88
2022/05/24 14:50:16;;;;;;;;;;;23.70;99.90;;;;;;5055005;28;19919;-87
2022/05/24 14:52:46;;;;;;;;;;;23.60;99.90;;;;;;5055978;28;19972;-79
2022/05/24 14:55:20;;;;;;;;;;;23.60;99.90;;;;;;5055136;28;19919;-78
2022/05/24 14:57:46;;;;;;;;;;;23.60;99.90;;;;;;5065729;28;20008;-75
2022/05/24 15:00:11;;;;;;;;;;;23.50;99.90;;;;;;5070551;28;19993;-74
2022/05/24 15:02:40;;;;;;;;;;;23.60;99.90;;;;;;5059622;28;20324;-82
2022/05/24 15:05:07;;;;;;;;;;;23.50;99.90;;;;;;5052917;28;20276;-86
2022/05/24 15:16:17;;;;;;;;;;;26.00;99.90;;;;;;5042848;28;20034;-80
2022/05/24 15:18:42;;;;;;;;;;;27.00;99.90;;;;;;5064272;28;19910;-78
2022/05/24 15:21:10;;;;;;;;;;;27.60;99.90;;;;;;5068817;28;19916;-78
2022/05/24 15:23:37;;;;;;;;;;;28.40;99.90;;;;;;5069643;28;19909;-79